Latest Coastal Weather Observations for Minlaton Airport

IDS60701

Issued at 1:41 am CST Thursday 25 August 2016 (issued every 10 minutes, with the page automatically refreshed every 10 minutes)

About coastal observations | Map of coastal stations | Coastal observations for SA | Marine services | Other Formats
Station Details ID: 022031 Name: MINLATON AERO Lat: -34.75 Lon: 137.53 Height: 32.0 m
Data from the previous 72 hours. | See also: Recent months at Minlaton Airport
Date/Time
CST
Temp
°C
Wind Pressure Rain since
9am
mm
Weather Cloud Vis
km
Sea
Height
m
Swell
Dir  Spd
kts
Gust
kts
hPa Trend Height
m
Period
s
Dir
25/01:30am 5.0 ESE 10 12 1017.2 - 0.2 - - - - - - -
25/01:00am 5.5 ESE 11 11 1017.3 - 0.2 - - - - - - -
25/12:30am 5.7 ESE 11 12 1017.0 - 0.2 - - - - - - -
25/12:00am 5.8 ESE 11 12 1017.2 - 0.2 - - - - - - -
 
Date/Time
CST
Temp
°C
Wind Pressure Rain since
9am
mm
Weather Cloud Vis
km
Sea
Height
m
Swell
Dir  Spd
kts
Gust
kts
hPa Trend Height
m
Period
s
Dir
24/11:30pm 6.2 ESE 11 12 1017.2 - 0.2 - - - - - - -
24/11:00pm 6.7 ESE 10 12 1017.2 - 0.2 - - - - - - -
24/10:30pm 6.7 ESE 10 12 1017.3 - 0.2 - - - - - - -
24/10:00pm 6.8 ESE 11 12 1017.3 - 0.2 - - - - - - -
24/09:30pm 7.5 ESE 11 13 1017.0 - 0.2 - - - - - - -
24/09:00pm 7.5 ESE 11 12 1016.8 - 0.2 - - - - - - -
24/08:30pm 6.4 ESE 10 11 1016.6 - 0.2 - - - - - - -
24/08:00pm 5.8 SE 9 9 1016.5 - 0.2 - - - - - - -
24/07:30pm 6.5 SE 9 10 1016.4 - 0.2 - - - - - - -
24/07:00pm 7.7 SSE 8 9 1016.3 - 0.2 - - - - - - -
24/06:30pm 7.8 SSE 9 11 1016.0 - 0.2 - - - - - - -
24/06:00pm 8.6 SSE 6 9 1015.7 - 0.2 - - - - - - -
24/05:30pm 10.7 ESE 7 8 1015.3 - 0.2 - - - - - - -
24/05:00pm 12.1 SE 9 11 1015.1 - 0.2 - - - - - - -
24/04:30pm 12.8 SE 12 15 1014.8 - 0.2 - - - - - - -
24/04:00pm 12.6 SSE 14 17 1014.7 - 0.2 - - - - - - -
24/03:30pm 13.5 SSW 12 15 1014.6 - 0.2 - - - - - - -
24/03:00pm 14.4 SW 3 12 1014.5 - 0.2 - - - - - - -
24/02:30pm 14.1 SE 4 5 1014.6 - 0.2 - - - - - - -
24/02:00pm 14.7 SE 6 8 1014.5 - 0.2 - - - - - - -
24/01:30pm 14.3 SSE 6 9 1014.7 - 0.2 - - - - - - -
24/01:00pm 15.1 WSW 5 7 1015.1 - 0.0 - - - - - - -
24/12:30pm 13.6 W 6 8 1015.5 - 0.0 - - - - - - -
24/12:00pm 14.1 E 4 5 1015.7 - 0.0 - - - - - - -
24/11:30am 15.1 ESE 3 7 1015.8 - 0.0 - - - - - - -
24/11:00am 14.9 ENE 4 8 1016.0 - 0.0 - - - - - - -
24/10:30am 14.2 ESE 2 7 1016.0 - 0.0 - - - - - - -
24/10:00am 13.5 E 5 7 1016.0 - 0.0 - - - - - - -
24/09:30am 12.4 ESE 4 6 1016.1 - 0.0 - - - - - - -
24/09:00am 11.2 ESE 4 6 1016.2 - 0.2 - - - - - - -
24/08:30am 9.5 E 5 7 1016.1 - 0.2 - - - - - - -
24/08:00am 7.5 E 6 7 1016.0 - 0.2 - - - - - - -
24/07:30am 5.5 E 8 9 1015.8 - 0.2 - - - - - - -
24/07:00am 3.3 E 7 8 1015.7 - 0.2 - - - - - - -
24/06:30am 3.1 ESE 7 7 1015.4 - 0.2 - - - - - - -
24/06:00am 3.6 E 8 9 1015.3 - 0.2 - - - - - - -
24/05:30am 3.7 E 7 8 1015.3 - 0.2 - - - - - - -
24/05:00am 3.4 E 6 7 1015.2 - 0.2 - - - - - - -
24/04:30am 4.4 S 4 5 1015.3 - 0.2 - - - - - - -
24/04:00am 4.8 ESE 5 7 1015.1 - 0.2 - - - - - - -
24/03:30am 5.1 E 8 8 1015.0 - 0.2 - - - - - - -
24/03:00am 5.6 ESE 9 10 1015.1 - 0.2 - - - - - - -
24/02:30am 5.5 ESE 9 10 1015.3 - 0.2 - - - - - - -
24/02:00am 5.1 ESE 8 9 1015.5 - 0.2 - - - - - - -
24/01:30am 5.3 ESE 9 10 1015.6 - 0.2 - - - - - - -
24/01:00am 5.1 ESE 7 7 1015.8 - 0.2 - - - - - - -
24/12:30am 5.5 ESE 8 9 1015.8 - 0.2 - - - - - - -
24/12:00am 5.3 ESE 8 9 1015.9 - 0.2 - - - - - - -
 
Date/Time
CST
Temp
°C
Wind Pressure Rain since
9am
mm
Weather Cloud Vis
km
Sea
Height
m
Swell
Dir  Spd
kts
Gust
kts
hPa Trend Height
m
Period
s
Dir
23/11:30pm 5.2 ESE 8 9 1016.1 - 0.2 - - - - - - -
23/11:00pm 6.1 ESE 7 8 1016.4 - 0.2 - - - - - - -
23/10:30pm 6.2 ESE 9 10 1016.4 - 0.2 - - - - - - -
23/10:00pm 5.4 ESE 5 6 1016.5 - 0.2 - - - - - - -
23/09:30pm 5.6 SE 7 9 1016.4 - 0.2 - - - - - - -
23/09:00pm 6.4 SE 7 8 1016.4 - 0.2 - - - - - - -
23/08:30pm 7.4 ESE 9 10 1016.2 - 0.2 - - - - - - -
23/08:00pm 7.8 SE 9 10 1016.0 - 0.2 - - - - - - -
23/07:30pm 7.8 SE 9 9 1015.9 - 0.2 - - - - - - -
23/07:00pm 8.2 SE 9 10 1015.8 - 0.2 - - - - - - -
23/06:30pm 8.7 SE 9 10 1015.7 - 0.2 - - - - - - -
23/06:00pm 9.9 SE 8 9 1015.5 - 0.2 - - - - - - -
23/05:30pm 11.8 SE 8 10 1015.2 - 0.2 - - - - - - -
23/05:00pm 13.3 SE 9 12 1015.2 - 0.2 - - - - - - -
23/04:30pm 14.0 SE 7 11 1015.1 - 0.2 - - - - - - -
23/04:00pm 14.4 SSE 8 11 1015.2 - 0.2 - - - - - - -
23/03:30pm 14.6 SSE 8 10 1015.2 - 0.2 - - - - - - -
23/03:00pm 16.3 SSW 7 10 1015.1 - 0.2 - - - - - - -
23/02:30pm 16.3 WSW 5 9 1015.1 - 0.2 - - - - - - -
23/02:00pm 15.3 WSW 4 8 1015.3 - 0.2 - - - - - - -
23/01:30pm 16.2 N 3 5 1015.5 - 0.2 - - - - - - -
23/01:00pm 15.7 N 6 8 1015.9 - 0.2 - - - - - - -
23/12:30pm 14.9 NE 6 9 1016.3 - 0.0 - - - - - - -
23/12:00pm 14.2 NE 6 9 1016.6 - 0.0 - - - - - - -
23/11:30am 14.6 NNE 5 7 1016.9 - 0.0 - - - - - - -
23/11:00am 14.4 ENE 6 10 1017.1 - 0.0 - - - - - - -
23/10:30am 14.2 ENE 6 9 1017.3 - 0.0 - - - - - - -
23/10:00am 13.2 ENE 6 8 1017.3 - 0.0 - - - - - - -
23/09:30am 12.3 NE 7 10 1017.4 - 0.0 - - - - - - -
23/09:00am 10.6 NNE 6 7 1017.3 - 0.0 - - - - - - -
23/08:30am 9.1 ENE 6 8 1017.1 - 0.0 - - - - - - -
23/08:00am 7.2 ENE 8 9 1016.6 - 0.0 - - - - - - -
23/07:30am 5.6 E 9 11 1016.2 - 0.0 - - - - - - -
23/07:00am 4.8 E 11 11 1016.1 - 0.0 - - - - - - -
23/06:30am 4.7 E 9 11 1016.1 - 0.0 - - - - - - -
23/06:00am 4.8 E 9 10 1016.0 - 0.0 - - - - - - -
23/05:30am 5.6 ESE 9 10 1015.7 - 0.0 - - - - - - -
23/05:00am 4.7 ESE 9 10 1015.8 - 0.0 - - - - - - -
23/04:30am 4.8 E 9 10 1015.9 - 0.0 - - - - - - -
23/04:00am 3.9 E 8 9 1015.7 - 0.0 - - - - - - -
23/03:30am 4.3 E 9 9 1015.6 - 0.0 - - - - - - -
23/03:00am 4.4 E 10 11 1015.8 - 0.0 - - - - - - -
23/02:30am 4.2 ESE 9 9 1015.9 - 0.0 - - - - - - -
23/02:00am 3.9 ESE 8 8 1015.9 - 0.0 - - - - - - -
23/01:30am 4.5 ESE 9 9 1015.9 - 0.0 - - - - - - -
23/01:00am 4.4 ESE 8 9 1016.0 - 0.0 - - - - - - -
23/12:30am 4.2 ESE 9 9 1016.0 - 0.0 - - - - - - -
23/12:00am 4.7 ESE 8 9 1016.1 - 0.0 - - - - - - -
 
Date/Time
CST
Temp
°C
Wind Pressure Rain since
9am
mm
Weather Cloud Vis
km
Sea
Height
m
Swell
Dir  Spd
kts
Gust
kts
hPa Trend Height
m
Period
s
Dir
22/11:30pm 4.8 E 8 9 1016.0 - 0.0 - - - - - - -
22/11:00pm 5.6 E 8 9 1016.1 - 0.0 - - - - - - -
22/10:30pm 5.5 E 8 9 1016.2 - 0.0 - - - - - - -
22/10:00pm 5.7 ESE 9 10 1016.3 - 0.0 - - - - - - -
22/09:30pm 6.0 ESE 9 9 1016.2 - 0.0 - - - - - - -
22/09:00pm 6.2 ESE 9 9 1016.2 - 0.0 - - - - - - -
22/08:30pm 6.1 ESE 8 8 1016.0 - 0.0 - - - - - - -
22/08:00pm 6.5 ESE 8 8 1015.7 - 0.0 - - - - - - -
22/07:30pm 7.0 SE 9 10 1015.2 - 0.0 - - - - - - -
22/07:00pm 6.3 SE 8 9 1015.0 - 0.0 - - - - - - -
22/06:30pm 7.8 SSE 6 7 1014.7 - 0.0 - - - - - - -
22/06:00pm 9.7 ESE 6 7 1014.5 - 0.0 - - - - - - -
22/05:30pm 11.9 ESE 7 9 1014.2 - 0.0 - - - - - - -
22/05:00pm 13.5 SE 8 11 1014.0 - 0.0 - - - - - - -
22/04:30pm 14.2 SSE 11 14 1013.9 - 0.0 - - - - - - -
22/04:00pm 14.6 SSW 13 17 1013.6 - 0.0 - - - - - - -
22/03:30pm 16.0 W 8 10 1013.3 - 0.0 - - - - - - -
22/03:00pm 16.5 ESE 3 7 1013.2 - 0.0 - - - - - - -
22/02:30pm 16.1 W 7 9 1013.1 - 0.0 - - - - - - -
22/02:00pm 16.0 W 6 9 1013.1 - 0.0 - - - - - - -
22/01:30pm 16.2 WSW 6 8 1013.2 - 0.0 - - - - - - -
22/01:00pm 15.6 WSW 5 8 1013.5 - 0.0 - - - - - - -
22/12:30pm 15.5 W 6 8 1014.0 - 0.0 - - - - - - -
22/12:00pm 14.6 W 7 9 1014.1 - 0.0 - - - - - - -
22/11:30am 16.0 SE 3 5 1014.3 - 0.0 - - - - - - -
22/11:00am 15.5 NNE 3 5 1014.3 - 0.0 - - - - - - -
22/10:30am 15.8 NNE 5 6 1014.2 - 0.0 - - - - - - -
22/10:00am 14.0 E 6 8 1014.2 - 0.0 - - - - - - -
22/09:30am 13.3 E 7 9 1014.0 - 0.0 - - - - - - -
22/09:00am 12.1 E 8 10 1014.0 - 0.2 - - - - - - -
22/08:30am 10.5 E 8 10 1013.9 - 0.2 - - - - - - -
22/08:00am 8.4 E 9 11 1013.6 - 0.2 - - - - - - -
22/07:30am 6.9 E 10 12 1013.3 - 0.2 - - - - - - -
22/07:00am 6.2 E 12 13 1013.0 - 0.2 - - - - - - -
22/06:30am 5.7 E 11 12 1012.7 - 0.2 - - - - - - -
22/06:00am 5.5 E 11 12 1012.5 - 0.2 - - - - - - -
22/05:30am 5.7 E 11 12 1012.3 - 0.2 - - - - - - -
22/05:00am 5.7 E 11 12 1012.4 - 0.2 - - - - - - -
22/04:30am 5.1 E 11 12 1012.3 - 0.2 - - - - - - -
22/04:00am 5.4 E 10 11 1012.4 - 0.2 - - - - - - -
22/03:30am 4.0 E 10 11 1012.6 - 0.2 - - - - - - -
22/03:00am 3.9 E 11 13 1012.6 - 0.2 - - - - - - -
22/02:30am 3.8 E 9 10 1012.8 - 0.2 - - - - - - -
22/02:00am 4.3 ESE 5 9 1013.0 - 0.2 - - - - - - -

Other Formats:

Comma delimited format used in spreadsheet applications
http://www.bom.gov.au/fwo/IDS60701/IDS60701.95659.axf

JavaScript Object Notation format (JSON) in row-major order
http://www.bom.gov.au/fwo/IDS60701/IDS60701.95659.json